createdAt,value
2018-05-23T00:00:05.024Z,14.50
2018-05-23T00:02:32.851Z,14.50
2018-05-23T00:05:00.280Z,14.50
2018-05-23T00:07:27.742Z,14.60
2018-05-23T00:09:55.199Z,14.60
2018-05-23T00:12:23.039Z,14.70
2018-05-23T00:14:51.653Z,14.60
2018-05-23T00:17:19.082Z,14.60
2018-05-23T00:19:46.519Z,15.50
2018-05-23T00:22:13.946Z,14.70
2018-05-23T00:24:42.146Z,14.60
2018-05-23T00:27:09.588Z,14.70
2018-05-23T00:29:37.789Z,14.60
2018-05-23T00:32:05.224Z,14.50
2018-05-23T00:34:32.655Z,14.60
2018-05-23T00:37:00.090Z,14.50
2018-05-23T00:39:27.527Z,14.60
2018-05-23T00:41:55.345Z,14.70
2018-05-23T00:44:23.550Z,14.70
2018-05-23T00:46:50.989Z,14.80
2018-05-23T00:49:18.419Z,14.70
2018-05-23T00:51:45.847Z,15.00
2018-05-23T00:54:13.298Z,14.50
2018-05-23T00:56:40.731Z,15.10
2018-05-23T00:59:08.164Z,14.70
2018-05-23T01:01:35.591Z,15.60
2018-05-23T01:04:03.418Z,15.00
2018-05-23T01:06:30.859Z,15.20
2018-05-23T01:08:58.290Z,15.20
2018-05-23T01:11:26.493Z,15.20
2018-05-23T01:13:53.950Z,15.40
2018-05-23T01:16:21.387Z,14.90
2018-05-23T01:18:49.220Z,15.20
2018-05-23T01:21:16.642Z,14.90
2018-05-23T01:23:44.088Z,15.30
2018-05-23T01:26:11.911Z,15.40
2018-05-23T01:28:40.121Z,15.20
2018-05-23T01:31:07.577Z,15.30
2018-05-23T01:33:35.023Z,14.80
2018-05-23T01:36:02.470Z,14.90
2018-05-23T01:38:29.899Z,15.20
2018-05-23T01:40:57.334Z,15.20
2018-05-23T01:43:25.166Z,15.00
2018-05-23T01:45:52.604Z,14.90
2018-05-23T01:48:20.033Z,15.40
2018-05-23T01:50:47.469Z,15.20
2018-05-23T01:53:14.898Z,15.30
2018-05-23T01:55:42.331Z,14.70
2018-05-23T01:58:09.758Z,15.30
2018-05-23T02:00:37.199Z,15.30
2018-05-23T02:03:04.634Z,14.80
2018-05-23T02:05:32.070Z,15.20
2018-05-23T02:07:59.506Z,15.20
2018-05-23T02:10:26.945Z,15.30
2018-05-23T02:12:55.138Z,15.00
2018-05-23T02:15:22.971Z,15.10
2018-05-23T02:17:50.409Z,15.20
2018-05-23T02:20:18.238Z,15.00
2018-05-23T02:22:45.667Z,15.10
2018-05-23T02:25:13.877Z,15.00
2018-05-23T02:27:41.302Z,14.80
2018-05-23T02:30:08.734Z,15.50
2018-05-23T02:32:36.167Z,15.00
2018-05-23T02:35:03.603Z,15.00
2018-05-23T02:37:31.049Z,14.60
2018-05-23T02:39:58.470Z,14.50
2018-05-23T02:42:25.915Z,14.40
2018-05-23T02:44:53.349Z,14.80
2018-05-23T02:47:20.795Z,14.70
2018-05-23T02:49:48.228Z,14.90
2018-05-23T02:52:16.056Z,14.50
2018-05-23T02:54:43.489Z,15.30
2018-05-23T02:57:11.323Z,14.30
2018-05-23T02:59:38.768Z,14.50
2018-05-23T03:02:06.189Z,15.00
2018-05-23T03:04:34.019Z,14.90
2018-05-23T03:07:01.452Z,14.20
2018-05-23T03:09:28.886Z,14.60
2018-05-23T03:11:57.098Z,14.60
2018-05-23T03:14:25.297Z,14.60
2018-05-23T03:16:52.732Z,15.00
2018-05-23T03:19:20.161Z,14.50
2018-05-23T03:21:47.601Z,14.60
2018-05-23T03:24:15.798Z,14.80
2018-05-23T03:26:43.235Z,14.40
2018-05-23T03:29:10.667Z,14.70
2018-05-23T03:31:38.877Z,14.80
2018-05-23T03:34:06.298Z,14.90
2018-05-23T03:36:34.506Z,14.70
2018-05-23T03:39:01.931Z,14.30
2018-05-23T03:41:30.144Z,14.50
2018-05-23T03:43:57.970Z,14.60
2018-05-23T03:46:26.162Z,14.40
2018-05-23T03:48:53.643Z,14.70
2018-05-23T03:51:21.088Z,14.70
2018-05-23T03:53:48.543Z,14.50
2018-05-23T03:56:15.974Z,14.80
2018-05-23T03:58:44.176Z,14.60
2018-05-23T04:04:24.097Z,14.60
2018-05-23T04:07:03.340Z,14.70
2018-05-23T04:09:31.548Z,14.80
2018-05-23T04:11:58.990Z,14.40
2018-05-23T04:14:26.418Z,15.00
2018-05-23T04:16:54.636Z,14.70
2018-05-23T04:19:22.083Z,15.10
2018-05-23T04:21:49.516Z,14.80
2018-05-23T04:24:17.719Z,14.70
2018-05-23T04:26:45.163Z,14.30
2018-05-23T04:29:12.599Z,14.60
2018-05-23T04:31:40.468Z,15.60
2018-05-23T04:34:08.659Z,14.90
2018-05-23T04:36:36.091Z,14.70
2018-05-23T04:39:04.296Z,15.00
2018-05-23T04:41:33.227Z,15.10
2018-05-23T04:44:00.662Z,15.10
2018-05-23T04:46:28.111Z,15.20
2018-05-23T04:48:55.547Z,15.00
2018-05-23T04:51:22.971Z,15.10
2018-05-23T04:53:51.167Z,15.20
2018-05-23T04:56:19.361Z,15.30
2018-05-23T04:58:46.795Z,15.00
2018-05-23T05:01:14.227Z,15.70
2018-05-23T05:03:41.647Z,15.50
2018-05-23T05:06:09.078Z,15.30
2018-05-23T05:08:37.275Z,15.30
2018-05-23T05:11:04.715Z,15.60
2018-05-23T05:13:32.563Z,15.30
2018-05-23T05:16:00.394Z,15.60
2018-05-23T05:18:27.832Z,15.80
2018-05-23T05:20:55.283Z,15.60
2018-05-23T05:23:22.792Z,15.50
2018-05-23T05:25:50.235Z,15.60
2018-05-23T05:28:18.438Z,15.50
2018-05-23T05:30:45.861Z,15.60
2018-05-23T05:33:14.073Z,15.60
2018-05-23T05:35:42.660Z,15.60
2018-05-23T05:38:11.223Z,15.60
2018-05-23T05:40:39.051Z,16.40
2018-05-23T05:43:06.499Z,15.30
2018-05-23T05:45:33.927Z,15.10
2018-05-23T05:48:01.359Z,16.00
2018-05-23T05:50:28.791Z,15.60
2018-05-23T05:52:56.988Z,16.00
2018-05-23T05:55:24.422Z,15.80
2018-05-23T05:57:52.617Z,16.20
2018-05-23T06:00:20.055Z,16.20
2018-05-23T06:02:48.255Z,16.30
2018-05-23T06:05:15.694Z,16.50
2018-05-23T06:07:43.121Z,16.70
2018-05-23T06:10:10.555Z,17.00
2018-05-23T06:12:37.986Z,16.70
2018-05-23T06:15:05.420Z,16.80
2018-05-23T06:17:32.843Z,16.20
2018-05-23T06:20:00.287Z,16.70
2018-05-23T06:22:27.715Z,16.60
2018-05-23T06:24:55.157Z,17.00
2018-05-23T06:27:22.583Z,16.70
2018-05-23T06:29:50.019Z,16.60
2018-05-23T06:32:17.459Z,16.80
2018-05-23T06:34:44.910Z,16.30
2018-05-23T06:37:12.340Z,16.80
2018-05-23T06:39:39.785Z,16.70
2018-05-23T06:42:07.225Z,16.20
2018-05-23T06:44:35.427Z,16.70
2018-05-23T06:47:03.262Z,16.80
2018-05-23T06:49:31.465Z,16.80
2018-05-23T06:51:58.920Z,16.60
2018-05-23T06:54:26.362Z,16.70
2018-05-23T06:56:54.183Z,17.10
2018-05-23T06:59:21.631Z,17.10
2018-05-23T07:01:49.074Z,17.00
2018-05-23T07:04:16.511Z,17.40
2018-05-23T07:06:43.955Z,16.90
2018-05-23T07:09:11.779Z,16.70
2018-05-23T07:11:40.005Z,17.50
2018-05-23T07:14:07.435Z,17.50
2018-05-23T07:16:34.883Z,17.70
2018-05-23T07:19:03.091Z,17.60
2018-05-23T07:21:30.553Z,18.00
2018-05-23T07:23:57.966Z,17.90
2018-05-23T07:26:26.167Z,18.10
2018-05-23T07:28:53.591Z,17.90
2018-05-23T07:31:22.166Z,18.30
2018-05-23T07:33:49.603Z,18.60
2018-05-23T07:36:17.038Z,18.00
2018-05-23T07:38:44.483Z,18.40
2018-05-23T07:41:11.956Z,18.00
2018-05-23T07:43:39.370Z,18.30
2018-05-23T07:46:07.006Z,18.30
2018-05-23T07:48:35.258Z,18.60
2018-05-23T07:51:02.796Z,18.50
2018-05-23T07:53:30.247Z,18.30
2018-05-23T07:55:57.690Z,18.30
2018-05-23T07:58:25.522Z,18.60
2018-05-23T08:00:52.960Z,18.40
2018-05-23T08:03:20.403Z,18.20
2018-05-23T08:05:47.856Z,18.50
2018-05-23T08:08:15.689Z,18.40
2018-05-23T08:10:43.526Z,18.70
2018-05-23T08:13:11.747Z,18.60
2018-05-23T08:15:39.599Z,18.50
2018-05-23T08:18:07.038Z,18.60
2018-05-23T08:20:34.471Z,18.40
2018-05-23T08:23:01.922Z,18.20
2018-05-23T08:25:29.755Z,19.10
2018-05-23T08:27:57.195Z,18.80
2018-05-23T08:30:24.635Z,18.60
2018-05-23T08:35:20.852Z,18.40
2018-05-23T08:37:48.693Z,18.70
2018-05-23T08:40:16.162Z,19.30
2018-05-23T08:42:43.618Z,19.60
2018-05-23T08:45:11.051Z,19.30
2018-05-23T08:47:38.490Z,19.60
2018-05-23T08:50:05.919Z,19.50
2018-05-23T08:52:33.356Z,19.20
2018-05-23T08:55:01.555Z,19.50
2018-05-23T08:57:29.065Z,19.10
2018-05-23T08:59:56.443Z,19.60
2018-05-23T09:02:24.271Z,19.40
2018-05-23T09:04:51.730Z,19.20
2018-05-23T09:07:19.913Z,19.70
2018-05-23T09:09:47.364Z,20.10
2018-05-23T09:12:15.269Z,20.00
2018-05-23T09:14:42.662Z,19.50
2018-05-23T09:17:10.111Z,19.50
2018-05-23T09:19:38.310Z,19.70
2018-05-23T09:22:05.751Z,20.40
2018-05-23T09:24:33.206Z,20.00
2018-05-23T09:27:01.016Z,20.10
2018-05-23T09:29:29.272Z,20.70
2018-05-23T09:31:56.673Z,21.40
2018-05-23T09:34:24.112Z,21.20
2018-05-23T09:36:52.318Z,21.40
2018-05-23T09:39:19.763Z,21.30
2018-05-23T09:41:47.208Z,21.40
2018-05-23T09:44:15.410Z,21.20
2018-05-23T09:46:42.860Z,21.00
2018-05-23T09:49:10.311Z,20.80
2018-05-23T09:51:37.746Z,20.40
2018-05-23T09:54:05.964Z,20.70
2018-05-23T09:56:33.403Z,20.50
2018-05-23T09:59:01.616Z,20.70
2018-05-23T10:01:29.140Z,21.10
2018-05-23T10:03:56.500Z,20.90
2018-05-23T10:06:23.947Z,20.90
2018-05-23T10:08:52.152Z,21.00
2018-05-23T10:11:19.598Z,20.70
2018-05-23T10:13:47.443Z,21.00
2018-05-23T10:16:15.279Z,21.30
2018-05-23T10:18:43.480Z,20.90
2018-05-23T10:21:10.935Z,20.90
2018-05-23T10:23:38.758Z,20.90
2018-05-23T10:26:06.200Z,20.70
2018-05-23T10:28:33.689Z,21.60
2018-05-23T10:31:01.570Z,21.70
2018-05-23T10:33:29.097Z,22.50
2018-05-23T10:35:56.468Z,22.80
2018-05-23T10:38:25.008Z,23.30
2018-05-23T10:40:52.611Z,23.90
2018-05-23T10:43:20.116Z,22.90
2018-05-23T10:45:47.567Z,23.20
2018-05-23T10:48:14.999Z,24.70
2018-05-23T10:50:42.442Z,24.90
2018-05-23T10:53:09.875Z,24.20
2018-05-23T10:55:38.090Z,23.40
2018-05-23T10:58:05.527Z,23.40
2018-05-23T11:00:32.966Z,25.10
2018-05-23T11:03:01.249Z,26.40
2018-05-23T11:05:28.615Z,26.40
2018-05-23T11:07:56.043Z,25.20
2018-05-23T11:10:24.260Z,26.30
2018-05-23T11:12:51.686Z,26.30
2018-05-23T11:15:19.141Z,25.60
2018-05-23T11:17:47.347Z,24.90
2018-05-23T11:20:14.807Z,24.90
2018-05-23T11:22:42.246Z,24.20
2018-05-23T11:25:09.691Z,25.10
2018-05-23T11:27:37.142Z,25.40
2018-05-23T11:30:05.359Z,25.90
2018-05-23T11:32:32.802Z,25.90
2018-05-23T11:35:00.258Z,25.00
2018-05-23T11:37:28.473Z,25.50
2018-05-23T11:39:55.913Z,25.60
2018-05-23T11:42:23.349Z,26.70
2018-05-23T11:44:50.807Z,26.80
2018-05-23T11:47:18.257Z,27.00
2018-05-23T11:49:45.715Z,25.80
2018-05-23T11:52:13.932Z,26.30
2018-05-23T11:54:41.383Z,25.70
2018-05-23T11:57:08.800Z,26.60
2018-05-23T11:59:36.235Z,25.20
2018-05-23T12:02:04.151Z,25.80
2018-05-23T12:04:31.587Z,25.80
2018-05-23T12:06:59.039Z,26.50
2018-05-23T12:09:26.515Z,26.90
2018-05-23T12:11:53.951Z,25.80
2018-05-23T12:14:21.385Z,25.20
2018-05-23T12:16:48.815Z,23.50
2018-05-23T12:19:17.031Z,24.10
2018-05-23T12:21:44.472Z,23.90
2018-05-23T12:24:11.899Z,24.20
2018-05-23T12:26:40.145Z,25.80
2018-05-23T12:29:08.703Z,26.50
2018-05-23T12:31:36.152Z,26.70
2018-05-23T12:34:04.346Z,26.10
2018-05-23T12:36:31.797Z,26.60
2018-05-23T12:38:59.230Z,26.20
2018-05-23T12:41:27.440Z,26.50
2018-05-23T12:43:54.886Z,26.70
2018-05-23T12:46:22.327Z,26.00
2018-05-23T12:48:49.787Z,26.10
2018-05-23T12:51:17.211Z,26.10
2018-05-23T12:53:44.647Z,25.70
2018-05-23T12:56:12.094Z,26.30
2018-05-23T12:58:39.534Z,25.90
2018-05-23T13:01:06.963Z,25.50
2018-05-23T13:03:34.403Z,26.30
2018-05-23T13:06:01.830Z,26.10
2018-05-23T13:08:30.099Z,26.00
2018-05-23T13:10:57.534Z,26.50
2018-05-23T13:13:24.984Z,26.10
2018-05-23T13:15:52.443Z,26.60
2018-05-23T13:18:20.863Z,26.40
2018-05-23T13:20:48.330Z,26.00
2018-05-23T13:23:15.768Z,26.80
2018-05-23T13:25:43.586Z,26.60
2018-05-23T13:28:11.031Z,26.70
2018-05-23T13:30:39.239Z,26.50
2018-05-23T13:33:06.708Z,26.00
2018-05-23T13:35:34.922Z,26.10
2018-05-23T13:38:02.755Z,26.60
2018-05-23T13:40:30.950Z,26.00
2018-05-23T13:42:58.382Z,25.90
2018-05-23T13:45:25.807Z,25.90
2018-05-23T13:47:53.248Z,25.50
2018-05-23T13:50:20.697Z,25.40
2018-05-23T13:52:48.136Z,26.10
2018-05-23T13:55:15.582Z,26.10
2018-05-23T13:57:43.765Z,26.20
2018-05-23T14:00:11.360Z,26.00
2018-05-23T14:02:39.546Z,25.90
2018-05-23T14:05:06.984Z,25.60
2018-05-23T14:07:34.528Z,25.80
2018-05-23T14:10:01.954Z,25.50
2018-05-23T14:12:30.158Z,25.60
2018-05-23T14:14:57.603Z,25.50
2018-05-23T14:17:25.028Z,25.50
2018-05-23T14:19:53.246Z,25.30
2018-05-23T14:22:20.683Z,25.20
2018-05-23T14:24:48.124Z,25.30
2018-05-23T14:27:15.957Z,25.80
2018-05-23T14:29:43.402Z,25.70
2018-05-23T14:32:10.835Z,25.60
2018-05-23T14:34:38.272Z,25.50
2018-05-23T14:37:05.699Z,25.40
2018-05-23T14:39:33.134Z,25.60
2018-05-23T14:42:00.575Z,25.30
2018-05-23T14:44:28.015Z,25.70
2018-05-23T14:46:55.455Z,25.60
2018-05-23T14:49:22.888Z,25.80
2018-05-23T14:51:51.103Z,25.40
2018-05-23T14:54:18.558Z,25.50
2018-05-23T14:56:46.032Z,25.60
2018-05-23T14:59:13.419Z,25.90
2018-05-23T15:01:40.869Z,25.30
2018-05-23T15:04:08.299Z,25.10
2018-05-23T15:06:35.738Z,25.20
2018-05-23T15:09:03.190Z,25.10
2018-05-23T15:11:30.622Z,24.50
2018-05-23T15:13:58.050Z,25.90
2018-05-23T15:16:25.481Z,25.40
2018-05-23T15:18:52.914Z,25.70
2018-05-23T15:21:20.350Z,25.30
2018-05-23T15:23:47.795Z,25.30
2018-05-23T15:26:16.002Z,25.60
2018-05-23T15:28:44.199Z,25.80
2018-05-23T15:31:11.671Z,25.70
2018-05-23T15:33:39.103Z,26.00
2018-05-23T15:36:06.552Z,25.70
2018-05-23T15:38:33.995Z,25.90
2018-05-23T15:41:01.437Z,25.70
2018-05-23T15:43:29.631Z,26.00
2018-05-23T15:45:57.068Z,26.30
2018-05-23T15:48:24.490Z,26.10
2018-05-23T15:50:51.932Z,26.00
2018-05-23T15:53:19.377Z,25.90
2018-05-23T15:55:46.822Z,25.60
2018-05-23T15:58:14.268Z,25.50
2018-05-23T16:00:41.727Z,25.50
2018-05-23T16:03:09.154Z,25.70
2018-05-23T16:05:36.592Z,25.40
2018-05-23T16:08:04.018Z,25.20
2018-05-23T16:10:31.466Z,25.10
2018-05-23T16:12:58.904Z,24.80
2018-05-23T16:15:26.367Z,24.20
2018-05-23T16:17:53.815Z,24.80
2018-05-23T16:20:21.271Z,24.80
2018-05-23T16:22:49.467Z,24.10
2018-05-23T16:25:16.910Z,23.80
2018-05-23T16:27:44.369Z,24.00
2018-05-23T16:30:11.810Z,23.70
2018-05-23T16:32:39.243Z,23.80
2018-05-23T16:35:06.686Z,24.00
2018-05-23T16:37:34.893Z,23.60
2018-05-23T16:40:02.336Z,23.30
2018-05-23T16:42:29.768Z,23.60
2018-05-23T16:44:57.969Z,23.60
2018-05-23T16:47:25.405Z,23.50
2018-05-23T16:49:53.609Z,23.50
2018-05-23T16:52:21.823Z,23.60
2018-05-23T16:54:49.278Z,23.90
2018-05-23T16:57:17.107Z,23.50
2018-05-23T16:59:44.543Z,23.90
2018-05-23T17:02:11.985Z,23.60
2018-05-23T17:04:40.166Z,23.60
2018-05-23T17:07:07.603Z,23.60
2018-05-23T17:09:35.809Z,23.40
2018-05-23T17:12:03.244Z,23.40
2018-05-23T17:14:31.440Z,23.30
2018-05-23T17:16:58.871Z,23.30
2018-05-23T17:19:27.084Z,23.30
2018-05-23T17:21:54.519Z,23.30
2018-05-23T17:24:21.947Z,23.10
2018-05-23T17:26:50.166Z,23.10
2018-05-23T17:29:17.592Z,23.00
2018-05-23T17:31:45.425Z,22.80
2018-05-23T17:34:12.863Z,23.00
2018-05-23T17:36:40.300Z,23.00
2018-05-23T17:39:07.755Z,23.20
2018-05-23T17:41:35.194Z,23.10
2018-05-23T17:44:02.623Z,23.00
2018-05-23T17:46:30.834Z,22.90
2018-05-23T17:48:58.264Z,22.90
2018-05-23T17:51:26.471Z,22.80
2018-05-23T17:53:54.670Z,22.70
2018-05-23T17:56:22.103Z,22.80
2018-05-23T17:58:49.555Z,22.50
2018-05-23T18:01:16.995Z,22.40
2018-05-23T18:03:44.439Z,22.40
2018-05-23T18:06:12.648Z,22.30
2018-05-23T18:08:40.092Z,22.30
2018-05-23T18:11:07.523Z,22.10
2018-05-23T18:13:35.740Z,22.00
2018-05-23T18:16:03.570Z,22.40
2018-05-23T18:18:31.771Z,21.70
2018-05-23T18:20:59.243Z,21.40
2018-05-23T18:23:26.729Z,21.60
2018-05-23T18:25:54.115Z,22.10
2018-05-23T18:28:21.550Z,21.40
2018-05-23T18:30:48.978Z,21.30
2018-05-23T18:33:16.426Z,20.90
2018-05-23T18:35:43.867Z,21.10
2018-05-23T18:38:11.312Z,21.50
2018-05-23T18:40:38.738Z,20.80
2018-05-23T18:43:06.958Z,20.80
2018-05-23T18:45:34.402Z,20.90
2018-05-23T18:48:01.861Z,20.70
2018-05-23T18:50:29.289Z,20.40
2018-05-23T18:52:56.732Z,20.40
2018-05-23T18:55:24.941Z,20.50
2018-05-23T18:57:52.399Z,20.60
2018-05-23T19:00:19.838Z,20.50
2018-05-23T19:02:47.262Z,20.00
2018-05-23T19:05:14.725Z,20.20
2018-05-23T19:07:42.198Z,20.20
2018-05-23T19:10:09.631Z,20.10
2018-05-23T19:12:37.063Z,20.10
2018-05-23T19:15:04.512Z,19.70
2018-05-23T19:17:31.936Z,19.90
2018-05-23T19:19:59.858Z,19.80
2018-05-23T19:22:27.602Z,19.80
2018-05-23T19:24:55.239Z,19.80
2018-05-23T19:27:22.681Z,19.00
2018-05-23T19:29:50.112Z,19.60
2018-05-23T19:32:18.316Z,19.40
2018-05-23T19:34:45.760Z,19.00
2018-05-23T19:37:13.187Z,19.40
2018-05-23T19:39:40.671Z,19.50
2018-05-23T19:44:36.866Z,19.50
2018-05-23T19:47:04.304Z,19.00
2018-05-23T19:49:32.503Z,19.40
2018-05-23T19:51:59.939Z,19.30
2018-05-23T19:54:27.378Z,18.90
2018-05-23T19:56:54.813Z,19.20
2018-05-23T19:59:22.258Z,19.20
2018-05-23T20:01:50.463Z,19.00
2018-05-23T20:04:17.894Z,19.10
2018-05-23T20:06:45.333Z,18.60
2018-05-23T20:09:13.564Z,19.10
2018-05-23T20:11:40.996Z,19.10
2018-05-23T20:14:08.527Z,18.90
2018-05-23T20:16:35.865Z,18.70
2018-05-23T20:19:03.305Z,18.80
2018-05-23T20:21:31.140Z,18.60
2018-05-23T20:23:58.566Z,18.60
2018-05-23T20:26:26.407Z,18.40
2018-05-23T20:28:53.835Z,18.00
2018-05-23T20:31:21.271Z,17.90
2018-05-23T20:33:49.098Z,18.20
2018-05-23T20:36:17.304Z,18.20
2018-05-23T20:38:44.735Z,18.00
2018-05-23T20:41:12.941Z,18.10
2018-05-23T20:43:40.379Z,18.10
2018-05-23T20:46:08.227Z,18.10
2018-05-23T20:48:36.429Z,18.00
2018-05-23T20:51:03.870Z,18.00
2018-05-23T20:53:31.299Z,18.40
2018-05-23T20:55:59.506Z,17.80
2018-05-23T20:58:26.989Z,17.90
2018-05-23T21:00:54.390Z,17.70
2018-05-23T21:03:22.590Z,17.90
2018-05-23T21:05:50.036Z,17.90
2018-05-23T21:08:17.863Z,17.60
2018-05-23T21:10:45.319Z,17.50
2018-05-23T21:13:12.746Z,17.00
2018-05-23T21:15:40.952Z,17.30
2018-05-23T21:18:08.390Z,17.40
2018-05-23T21:20:35.863Z,16.80
2018-05-23T21:23:03.262Z,17.40
2018-05-23T21:25:30.721Z,17.50
2018-05-23T21:27:58.154Z,17.40
2018-05-23T21:30:25.991Z,17.30
2018-05-23T21:32:53.443Z,17.60
2018-05-23T21:35:20.882Z,17.30
2018-05-23T21:37:48.326Z,17.50
2018-05-23T21:40:15.760Z,17.70
2018-05-23T21:45:13.314Z,17.60
2018-05-23T21:47:41.525Z,17.50
2018-05-23T21:50:08.963Z,17.70
2018-05-23T21:52:36.412Z,17.50
2018-05-23T21:55:04.617Z,17.30
2018-05-23T21:57:32.056Z,17.50
2018-05-23T21:59:59.492Z,17.00
2018-05-23T22:02:27.690Z,17.00
2018-05-23T22:04:55.136Z,17.10
2018-05-23T22:07:22.973Z,16.90
2018-05-23T22:09:50.404Z,17.20
2018-05-23T22:12:17.849Z,16.30
2018-05-23T22:14:46.047Z,16.70
2018-05-23T22:17:13.501Z,17.50
2018-05-23T22:19:41.337Z,16.40
2018-05-23T22:22:08.774Z,16.80
2018-05-23T22:24:36.220Z,16.80
2018-05-23T22:27:04.421Z,16.60
2018-05-23T22:29:31.850Z,16.20
2018-05-23T22:31:59.288Z,16.80
2018-05-23T22:34:27.863Z,16.60
2018-05-23T22:36:55.319Z,16.70
2018-05-23T22:39:23.155Z,16.40
2018-05-23T22:41:50.591Z,16.20
2018-05-23T22:44:18.030Z,16.30
2018-05-23T22:46:45.475Z,16.50
2018-05-23T22:49:13.319Z,16.10
2018-05-23T22:51:41.522Z,16.30
2018-05-23T22:54:10.003Z,16.30
2018-05-23T22:56:37.433Z,16.30
2018-05-23T22:59:05.649Z,16.30
2018-05-23T23:01:33.091Z,16.00
2018-05-23T23:04:00.523Z,16.30
2018-05-23T23:06:28.739Z,16.10
2018-05-23T23:08:56.184Z,15.70
2018-05-23T23:11:23.625Z,16.10
2018-05-23T23:13:51.056Z,16.00
2018-05-23T23:16:18.490Z,15.60
2018-05-23T23:18:46.696Z,15.50
2018-05-23T23:21:14.905Z,15.40
2018-05-23T23:23:42.367Z,15.60
2018-05-23T23:26:09.793Z,15.50
2018-05-23T23:28:37.230Z,15.70
2018-05-23T23:31:05.443Z,15.30
2018-05-23T23:33:32.875Z,15.20
2018-05-23T23:36:00.311Z,15.10
2018-05-23T23:38:27.750Z,15.50
2018-05-23T23:40:55.199Z,14.70
2018-05-23T23:43:22.678Z,15.70
2018-05-23T23:45:50.114Z,15.10
2018-05-23T23:48:17.567Z,15.10
2018-05-23T23:50:45.023Z,15.10
2018-05-23T23:53:12.459Z,15.30
2018-05-23T23:55:39.911Z,15.00
2018-05-23T23:58:08.485Z,14.90
